Jack Singer

Broker Associate
Coldwell Banker Residential Brokerage
1720 E Warner Rd Ste 20-1 Tempe, AZ 85284

Neighborhood Info

 
About 85206
Located in Maricopa County, this neighborhood in Mesa has a population of 34138.
Learn more about 85206
Median Age32
Married45%
Median Income$46,145
Households with Children21%

Recent Home Sales

 
Location Price Date Distance Type
5047 Emerald Ave $162,500 10/03/2014 0.24 miles Residential - Single Family
5137 Emelita Cir $106,500 09/23/2014 0.15 miles Residential - Single Family
5421 Dewberry Cir $192,000 09/23/2014 0.45 miles Residential - Single Family
5241 Flower Ave $175,000 09/18/2014 0.19 miles Residential - Single Family
5450 Flower Ave $171,500 09/11/2014 0.34 miles Residential - Single Family
1941 Pierpont $122,000 09/04/2014 0.03 miles Condo
5449 Forge Ave $195,000 08/25/2014 0.27 miles Residential - Single Family
5429 Flower Ave $173,500 08/21/2014 0.33 miles Residential - Single Family
649 Banning $177,500 08/07/2014 0.44 miles Residential - Single Family
649 Balboa $215,000 08/04/2014 0.42 miles Residential - Single Family
1114 55th Cir $238,000 07/31/2014 0.38 miles Residential - Single Family
1941 Pierpont $122,375 07/25/2014 0.03 miles Condo
1147 53rd Pl $169,691 07/25/2014 0.29 miles Residential - Single Family
5354 Florian Ave $139,500 07/23/2014 0.25 miles Residential - Single Family
1941 Pierpont $131,000 07/15/2014 0.03 miles Condo
1139 53rd Pl $174,900 07/08/2014 0.3 miles Residential - Single Family
5460 Emerald Ave $165,500 06/30/2014 0.22 miles Residential - Single Family
726 St Paul Cir $210,000 06/30/2014 0.35 miles Residential - Single Family
1941 Pierpont $89,900 06/26/2014 0.03 miles Condo
5332 Flower Ave $195,000 06/18/2014 0.21 miles Residential - Single Family
1152 Sinova $175,000 06/18/2014 0.22 miles Residential - Single Family
5413 Dewberry Cir $225,000 06/18/2014 0.45 miles Residential - Single Family
1941 Pierpont $112,000 05/29/2014 0.03 miles Condo
1941 Pierpont $95,000 05/27/2014 0.03 miles Condo
1704 39th St $175,000 05/23/2014 0.03 miles Residential - Single Family
5457 Farmdale Ave $200,000 05/23/2014 0.27 miles Residential - Single Family
1941 Pierpont $95,000 05/22/2014 0.03 miles Condo
1941 Pierpont $120,000 05/20/2014 0.03 miles Condo
1941 Pierpont $95,000 05/14/2014 0.03 miles Condo
1915 39th St $159,000 05/12/2014 0.03 miles Residential - Single Family
1941 Pierpont $126,500 05/09/2014 0.03 miles Condo
1104 53rd St $175,000 05/07/2014 0.03 miles Residential - Single Family
5423 Garnet Ave $293,000 05/06/2014 0.48 miles Residential - Single Family
621 Balboa $215,000 05/05/2014 0.4 miles Residential - Single Family
5107 Elena Ave $155,000 04/17/2014 0.2 miles Residential - Single Family
1811 39th St $174,000 04/16/2014 0.03 miles Residential - Single Family
1941 Pierpont $99,000 04/15/2014 0.03 miles Condo
1941 Pierpont $96,000 04/15/2014 0.03 miles Condo
1941 Pierpont $95,000 04/15/2014 0.03 miles Condo
1941 Pierpont $95,000 04/15/2014 0.03 miles Condo
912 Sunnyvale $198,000 04/11/2014 0.22 miles Residential - Single Family
1941 Pierpont $111,600 04/07/2014 0.03 miles Condo
5148 Florian Cir $134,500 03/27/2014 0.2 miles Residential - Single Family
5141 Forge Cir $169,500 03/26/2014 0.2 miles Residential - Single Family
5055 Enid Ave $165,000 03/14/2014 0.23 miles Residential - Single Family
1941 Pierpont $110,000 03/13/2014 0.03 miles Condo
5064 Escondido Ave $175,000 03/06/2014 0.35 miles Residential - Single Family
4959 Forge Ave $175,000 03/05/2014 0.36 miles Residential - Single Family
5045 Forge Ave $145,000 03/04/2014 0.31 miles Residential - Single Family
5105 Emelita Ave $143,000 03/03/2014 0.23 miles Residential - Single Family

About the Schools in 85206

 
This neighborhood has many of the demographic and socio-economic qualities that have been tied to the development of a good school system resulting in a high educational climate index rating. Learn more about the schools in 85206.
Specific data may not be available yet for new homes or developments in this area and estimates will NOT be displayed. Contact your local Coldwell Banker® office for more information.

If the address is unknown or if no information is available regarding a specific address, the most recent home sales will be selected based on zip code. Contact your local Coldwell Banker® office for more information.

The following states are non-disclosure states: Alaska, Idaho, Indiana, Kansas, Louisiana, Mississippi, Missouri, Montana, New Mexico, North Dakota, Texas, Utah, Wyoming. No actual home sale data is available. Contact your local Coldwell Banker® office for more information.

Neighborhood content provided by OnBoardLLC Copyright © 2008 OnBoard LLC. Information is deemed reliable but not guaranteed.

Choose a Currency close window close